Airfield :
LOGIN :

Register | Disclaimer

   EN    FR    IT 

 










Legend :    VFR   Marginal VFR   IFR   Intensive IFR   Very Intensive IFR
Visi :
Ceiling :
>= 8 km
>= 3000ft
5 to 8 km
1000 to 3000 ft
1500m to 5 km
500 to 1000 ft
800 to 1500m
200 to 500 ft
< 800m
< 200 ft
Symbols :   Thunderstorms  Fog  Heavy snow  Heavy precipitations  Wind > 20 kt
SIGMETs :     Misc.  Thunderstorms  Icing  Turbulence  Mountain Waves  Volcanic Ashes






- Airport Elevation : 138 ft
- IATA code : BIO


LEBB - Bilbao

CURRENT METAR :
  • 142300Z AUTO 07002KT CAVOK 16/14 Q1022

EXPIRED METARs :
  • 142230Z AUTO VRB01KT 9999 FEW032 17/13 Q1022
  • 142200Z AUTO VRB02KT 9999 SCT031 17/14 Q1022
  • 142130Z VRB02KT 9999 FEW032 18/14 Q1022 NOSIG
  • 142100Z VRB01KT 9999 FEW034 18/14 Q1022 NOSIG
  • 142030Z 30002KT 9999 FEW030 19/14 Q1022 NOSIG

TAF TAF LEBB
Valid from the 14 at 18:00 until the 15 at 18:00 UTC


141700Z 1418/1518 VRB05KT 9999 SCT030 TX24/1513Z TN16/1506Z
TEMPO 1418/1419 33010KT
TEMPO 1421/1509 BKN010
PROB40
TEMPO 1423/1508 3000 RADZ BR BKN005 BKN010
TEMPO 1512/1518 34010KT



MET'MAP, your aeronautical weather chart ! - Copyright ORBIFLY December 2007 - Disclaimer

ORBIFLY MET'MAP TEAM :

Programming & Development : Alexandra Zaïnal
Concept & original design : Baudouin d'Aumeries
Assistance for programming : Marc-Olivier Méhu
Technical & hardware support : Manuel Goepfert

Contact : metmap@orbifly.com




SOURCES & CREDITS :

   NOAA